Danville, Missouri
Current Conditions -  °F | °C
As of 10:35 PM on Friday 24 Oct 2014 (Local Time) from KFYG Reporting Station
Clear Clear  
Wind Chill: 63°   Ceiling: Unl
Heat Index: 63°   Visibility: 8mi
Dew Point: 57°   Wind: 0mph
Humidity: 82%   Direction: NA
Pressure: 30"   Gusts: NA
Location:  39.0022°N, 91.5066°W
Report Text: KFYG 250335Z AUTO 00000KT 8SM CLR 17/14 A3000 RMK AO2
Loading
Personal Weather Stations






























Interactive Weather Map
Tropical Storm Tracking
New forecast layout! Learn more

10-Day Weather Forecast

Advertisements
Track Severe Weather on mobile